Aérodrome :
LOGIN :

S'inscrire | Disclaimer

   EN    FR    IT 

 










Légende :    VFR   VFR Marginal   IFR   IFR Intensif   IFR Très Intensif
Visi : 
Plafond : 
>= 8 km
>= 3000ft
5 à 8 km
1000 à 3000 ft
1500m à 5 km
500 à 1000 ft
800 à 1500m
200 à 500 ft
< 800m
< 200 ft
Symboles :   Orages  Brouillard  Fortes neiges  Fortes précipitations  Vent > 20 kt
SIGMETs :   Divers  Orages  Givrage  Turbulence  Onde Orograph.  Cendres Volcan.






- Altitude de l'aérodrome : 226 ft
- Code IATA : BEX


EGUB - RAF Benson

DERNIER METAR :
  • 211138Z 18003KT 3000 0800W PRFG BR FEW000 01/01 Q1042 BECMG 5000 RMK AMB BECMG WHT

METARs EXPIRÉS :
  • 211121Z 19002KT 2500 0500W PRFG BR SCT000 00/00 Q1042 BECMG 5000 FEW003 RMK RED BECMG WHT
  • 211103Z 15001KT 1600 0800W PRFG BR SCT000 00/00 Q1042 BECMG 2500 FEW003 RMK RED BECMG YLO1
  • 211020Z 01001KT 0300 FZFG BKN000 M01/M01 Q1042 BECMG 0800 FG RMK RED BECMG RED
  • 210950Z 00000KT 0100 FZFG BKN000 M01/M01 Q1043 BECMG 0800 FG RMK RED BECMG RED
  • 210921Z 18003KT 0300 FZFG BKN000 M01/M01 Q1043 BECMG 0800 FG RMK RED BECMG RED
  • 210850Z 19002KT 0300 FZFG BKN000 M01/M01 Q1043 BECMG 0800 FG RMK RED BECMG RED

TAF TAF EGUB
Valide du 21 à 12h jusqu'au 21 à 21h UTC


211034Z 2112/2121 VRB03KT 0700 FG BKN000
BECMG 2112/2114 7000 BR FEW005
TEMPO 2114/2118 9999 NSW
BECMG 2118/2121 3000 BKN012
PROB40 2118/2121 0500 FG BKN000
ATIS : +44 1491-837766 (x7524)



MET'MAP, la Météo Aéronautique d'un coup d'oeil ! - Copyright ORBIFLY Décembre 2007 - Disclaimer

ORBIFLY MET'MAP TEAM :

Programmation & Développement : Alexandra Zaïnal
Sur une idée originale de : Baudouin d'Aumeries
Assistance à la programmation : Marc-Olivier Méhu
Soutien technique & logistique : Manuel Goepfert

Contact : metmap@orbifly.com




SOURCES & CREDITS :

   NOAA